sensor_id;sensor_type;location;lat;lon;timestamp;P1;durP1;ratioP1;P2;durP2;ratioP2
64375;SDS011;50700;55.416;12.952;2023-07-13T00:02:03;6.28;;;1.83;;
64375;SDS011;50700;55.416;12.952;2023-07-13T00:04:29;6.57;;;2.22;;
64375;SDS011;50700;55.416;12.952;2023-07-13T00:06:54;6.95;;;2.00;;
64375;SDS011;50700;55.416;12.952;2023-07-13T00:09:20;5.40;;;1.88;;
64375;SDS011;50700;55.416;12.952;2023-07-13T00:11:49;5.28;;;2.25;;
64375;SDS011;50700;55.416;12.952;2023-07-13T00:14:15;4.40;;;1.80;;
64375;SDS011;50700;55.416;12.952;2023-07-13T00:16:41;4.55;;;1.65;;
64375;SDS011;50700;55.416;12.952;2023-07-13T00:19:09;9.98;;;2.17;;
64375;SDS011;50700;55.416;12.952;2023-07-13T00:21:35;2.13;;;1.70;;
64375;SDS011;50700;55.416;12.952;2023-07-13T00:24:00;4.55;;;1.75;;
64375;SDS011;50700;55.416;12.952;2023-07-13T00:26:26;3.95;;;1.80;;
64375;SDS011;50700;55.416;12.952;2023-07-13T00:28:52;3.70;;;2.13;;
64375;SDS011;50700;55.416;12.952;2023-07-13T00:31:17;6.80;;;1.85;;
64375;SDS011;50700;55.416;12.952;2023-07-13T00:33:43;5.72;;;1.85;;
64375;SDS011;50700;55.416;12.952;2023-07-13T00:36:09;4.55;;;1.35;;
64375;SDS011;50700;55.416;12.952;2023-07-13T00:38:34;4.25;;;1.80;;
64375;SDS011;50700;55.416;12.952;2023-07-13T00:41:00;4.70;;;1.67;;
64375;SDS011;50700;55.416;12.952;2023-07-13T00:43:26;4.22;;;1.90;;
64375;SDS011;50700;55.416;12.952;2023-07-13T00:48:25;6.25;;;1.83;;
64375;SDS011;50700;55.416;12.952;2023-07-13T00:50:51;3.72;;;1.70;;
64375;SDS011;50700;55.416;12.952;2023-07-13T00:53:19;5.50;;;1.70;;
64375;SDS011;50700;55.416;12.952;2023-07-13T00:55:45;3.95;;;1.85;;
64375;SDS011;50700;55.416;12.952;2023-07-13T00:58:10;4.45;;;1.85;;
64375;SDS011;50700;55.416;12.952;2023-07-13T01:00:36;3.75;;;1.80;;
64375;SDS011;50700;55.416;12.952;2023-07-13T01:03:03;3.03;;;1.63;;
64375;SDS011;50700;55.416;12.952;2023-07-13T01:05:29;1.60;;;1.20;;
64375;SDS011;50700;55.416;12.952;2023-07-13T01:07:57;7.28;;;2.22;;
64375;SDS011;50700;55.416;12.952;2023-07-13T01:10:23;5.90;;;2.67;;
64375;SDS011;50700;55.416;12.952;2023-07-13T01:12:48;4.93;;;1.90;;
64375;SDS011;50700;55.416;12.952;2023-07-13T01:15:36;6.78;;;2.20;;
64375;SDS011;50700;55.416;12.952;2023-07-13T01:18:03;8.02;;;2.03;;
64375;SDS011;50700;55.416;12.952;2023-07-13T01:20:28;4.05;;;1.80;;
64375;SDS011;50700;55.416;12.952;2023-07-13T01:22:54;9.20;;;1.88;;
64375;SDS011;50700;55.416;12.952;2023-07-13T01:25:19;4.35;;;2.15;;
64375;SDS011;50700;55.416;12.952;2023-07-13T01:27:45;6.47;;;1.90;;
64375;SDS011;50700;55.416;12.952;2023-07-13T01:30:10;5.95;;;2.22;;
64375;SDS011;50700;55.416;12.952;2023-07-13T01:32:36;10.60;;;1.73;;
64375;SDS011;50700;55.416;12.952;2023-07-13T01:35:02;3.92;;;1.90;;
64375;SDS011;50700;55.416;12.952;2023-07-13T01:37:27;7.15;;;1.90;;
64375;SDS011;50700;55.416;12.952;2023-07-13T01:39:53;3.75;;;1.63;;
64375;SDS011;50700;55.416;12.952;2023-07-13T01:42:18;5.68;;;1.80;;
64375;SDS011;50700;55.416;12.952;2023-07-13T01:44:43;5.00;;;1.75;;
64375;SDS011;50700;55.416;12.952;2023-07-13T01:47:09;6.35;;;2.00;;
64375;SDS011;50700;55.416;12.952;2023-07-13T01:49:35;7.57;;;2.47;;
64375;SDS011;50700;55.416;12.952;2023-07-13T01:52:00;3.20;;;1.80;;
64375;SDS011;50700;55.416;12.952;2023-07-13T01:54:26;9.13;;;2.25;;
64375;SDS011;50700;55.416;12.952;2023-07-13T01:56:51;3.75;;;1.85;;
64375;SDS011;50700;55.416;12.952;2023-07-13T01:59:16;7.35;;;1.88;;
64375;SDS011;50700;55.416;12.952;2023-07-13T02:01:41;3.67;;;1.90;;
64375;SDS011;50700;55.416;12.952;2023-07-13T02:04:07;8.20;;;2.25;;
64375;SDS011;50700;55.416;12.952;2023-07-13T02:06:35;3.22;;;1.80;;
64375;SDS011;50700;55.416;12.952;2023-07-13T02:09:04;5.68;;;1.80;;
64375;SDS011;50700;55.416;12.952;2023-07-13T02:11:32;8.02;;;2.15;;
64375;SDS011;50700;55.416;12.952;2023-07-13T02:14:01;2.38;;;1.40;;
64375;SDS011;50700;55.416;12.952;2023-07-13T02:16:27;6.28;;;1.90;;
64375;SDS011;50700;55.416;12.952;2023-07-13T02:18:52;2.42;;;1.90;;
64375;SDS011;50700;55.416;12.952;2023-07-13T02:21:18;5.18;;;1.90;;
64375;SDS011;50700;55.416;12.952;2023-07-13T02:23:43;4.55;;;2.53;;
64375;SDS011;50700;55.416;12.952;2023-07-13T02:26:09;4.68;;;1.80;;
64375;SDS011;50700;55.416;12.952;2023-07-13T02:28:34;4.22;;;2.00;;
64375;SDS011;50700;55.416;12.952;2023-07-13T02:31:09;6.85;;;2.03;;
64375;SDS011;50700;55.416;12.952;2023-07-13T02:33:35;3.50;;;1.80;;
64375;SDS011;50700;55.416;12.952;2023-07-13T02:36:00;5.25;;;1.73;;
64375;SDS011;50700;55.416;12.952;2023-07-13T02:38:26;6.78;;;2.78;;
64375;SDS011;50700;55.416;12.952;2023-07-13T02:40:52;4.38;;;1.95;;
64375;SDS011;50700;55.416;12.952;2023-07-13T02:43:18;5.60;;;1.70;;
64375;SDS011;50700;55.416;12.952;2023-07-13T02:45:43;5.00;;;2.17;;
64375;SDS011;50700;55.416;12.952;2023-07-13T02:48:09;5.03;;;1.77;;
64375;SDS011;50700;55.416;12.952;2023-07-13T02:50:34;2.20;;;1.73;;
64375;SDS011;50700;55.416;12.952;2023-07-13T02:52:59;4.53;;;1.98;;
64375;SDS011;50700;55.416;12.952;2023-07-13T02:55:25;4.47;;;2.55;;
64375;SDS011;50700;55.416;12.952;2023-07-13T02:57:50;3.63;;;1.90;;
64375;SDS011;50700;55.416;12.952;2023-07-13T03:00:16;6.38;;;2.75;;
64375;SDS011;50700;55.416;12.952;2023-07-13T03:02:41;4.50;;;1.92;;
64375;SDS011;50700;55.416;12.952;2023-07-13T03:05:07;4.45;;;1.95;;
64375;SDS011;50700;55.416;12.952;2023-07-13T03:07:33;3.50;;;1.70;;
64375;SDS011;50700;55.416;12.952;2023-07-13T03:09:58;4.75;;;1.65;;
64375;SDS011;50700;55.416;12.952;2023-07-13T03:12:24;3.10;;;1.80;;
64375;SDS011;50700;55.416;12.952;2023-07-13T03:14:49;2.42;;;1.90;;
64375;SDS011;50700;55.416;12.952;2023-07-13T03:17:14;6.00;;;1.77;;
64375;SDS011;50700;55.416;12.952;2023-07-13T03:19:40;3.22;;;1.77;;
64375;SDS011;50700;55.416;12.952;2023-07-13T03:22:05;5.60;;;1.80;;
64375;SDS011;50700;55.416;12.952;2023-07-13T03:24:32;6.18;;;1.98;;
64375;SDS011;50700;55.416;12.952;2023-07-13T03:26:58;3.63;;;1.90;;
64375;SDS011;50700;55.416;12.952;2023-07-13T03:29:23;5.22;;;2.00;;
64375;SDS011;50700;55.416;12.952;2023-07-13T03:31:48;6.78;;;2.75;;
64375;SDS011;50700;55.416;12.952;2023-07-13T03:34:14;7.43;;;2.10;;
64375;SDS011;50700;55.416;12.952;2023-07-13T03:36:39;6.50;;;2.00;;
64375;SDS011;50700;55.416;12.952;2023-07-13T03:39:05;8.45;;;2.25;;
64375;SDS011;50700;55.416;12.952;2023-07-13T03:41:33;5.90;;;1.92;;
64375;SDS011;50700;55.416;12.952;2023-07-13T03:43:59;4.40;;;2.08;;
64375;SDS011;50700;55.416;12.952;2023-07-13T03:46:24;4.45;;;2.10;;
64375;SDS011;50700;55.416;12.952;2023-07-13T03:48:50;6.95;;;2.42;;
64375;SDS011;50700;55.416;12.952;2023-07-13T03:51:16;4.20;;;2.17;;
64375;SDS011;50700;55.416;12.952;2023-07-13T03:53:43;6.43;;;2.00;;
64375;SDS011;50700;55.416;12.952;2023-07-13T03:56:08;4.03;;;2.05;;
64375;SDS011;50700;55.416;12.952;2023-07-13T03:58:35;2.97;;;2.22;;
64375;SDS011;50700;55.416;12.952;2023-07-13T04:01:02;5.32;;;2.05;;
64375;SDS011;50700;55.416;12.952;2023-07-13T04:03:28;3.97;;;2.38;;
64375;SDS011;50700;55.416;12.952;2023-07-13T04:05:56;8.27;;;2.53;;
64375;SDS011;50700;55.416;12.952;2023-07-13T04:08:32;4.80;;;2.38;;
64375;SDS011;50700;55.416;12.952;2023-07-13T04:10:58;8.15;;;2.67;;
64375;SDS011;50700;55.416;12.952;2023-07-13T04:13:23;5.15;;;1.98;;
64375;SDS011;50700;55.416;12.952;2023-07-13T04:15:49;4.05;;;2.10;;
64375;SDS011;50700;55.416;12.952;2023-07-13T04:18:14;5.10;;;2.08;;
64375;SDS011;50700;55.416;12.952;2023-07-13T04:20:40;4.18;;;1.80;;
64375;SDS011;50700;55.416;12.952;2023-07-13T04:23:05;6.68;;;2.30;;
64375;SDS011;50700;55.416;12.952;2023-07-13T04:25:31;10.50;;;3.30;;
64375;SDS011;50700;55.416;12.952;2023-07-13T04:27:56;7.50;;;2.63;;
64375;SDS011;50700;55.416;12.952;2023-07-13T04:30:22;6.45;;;2.38;;
64375;SDS011;50700;55.416;12.952;2023-07-13T04:32:50;6.40;;;2.50;;
64375;SDS011;50700;55.416;12.952;2023-07-13T04:35:17;6.47;;;2.22;;
64375;SDS011;50700;55.416;12.952;2023-07-13T04:37:42;5.88;;;2.45;;
64375;SDS011;50700;55.416;12.952;2023-07-13T04:40:08;2.38;;;1.88;;
64375;SDS011;50700;55.416;12.952;2023-07-13T04:42:37;6.40;;;2.13;;
64375;SDS011;50700;55.416;12.952;2023-07-13T04:45:02;2.22;;;1.88;;
64375;SDS011;50700;55.416;12.952;2023-07-13T04:47:29;4.55;;;2.40;;
64375;SDS011;50700;55.416;12.952;2023-07-13T04:49:55;4.43;;;2.10;;
64375;SDS011;50700;55.416;12.952;2023-07-13T04:52:21;5.78;;;2.15;;
64375;SDS011;50700;55.416;12.952;2023-07-13T04:54:47;6.15;;;2.30;;
64375;SDS011;50700;55.416;12.952;2023-07-13T04:57:12;6.25;;;3.08;;
64375;SDS011;50700;55.416;12.952;2023-07-13T04:59:37;5.72;;;1.98;;
64375;SDS011;50700;55.416;12.952;2023-07-13T05:02:03;6.57;;;2.30;;
64375;SDS011;50700;55.416;12.952;2023-07-13T05:04:28;5.97;;;1.67;;
64375;SDS011;50700;55.416;12.952;2023-07-13T05:06:54;3.85;;;2.13;;
64375;SDS011;50700;55.416;12.952;2023-07-13T05:09:19;4.93;;;2.00;;
64375;SDS011;50700;55.416;12.952;2023-07-13T05:11:45;6.25;;;2.15;;
64375;SDS011;50700;55.416;12.952;2023-07-13T05:14:10;3.65;;;1.88;;
64375;SDS011;50700;55.416;12.952;2023-07-13T05:16:36;8.13;;;2.00;;
64375;SDS011;50700;55.416;12.952;2023-07-13T05:19:01;2.97;;;2.03;;
64375;SDS011;50700;55.416;12.952;2023-07-13T05:21:27;6.32;;;2.00;;
64375;SDS011;50700;55.416;12.952;2023-07-13T05:23:52;7.35;;;2.20;;
64375;SDS011;50700;55.416;12.952;2023-07-13T05:26:17;1.70;;;1.60;;
64375;SDS011;50700;55.416;12.952;2023-07-13T05:28:43;4.90;;;1.80;;
64375;SDS011;50700;55.416;12.952;2023-07-13T05:31:09;5.43;;;2.10;;
64375;SDS011;50700;55.416;12.952;2023-07-13T05:33:35;5.53;;;2.42;;
64375;SDS011;50700;55.416;12.952;2023-07-13T05:36:00;3.58;;;2.10;;
64375;SDS011;50700;55.416;12.952;2023-07-13T05:38:26;3.50;;;1.65;;
64375;SDS011;50700;55.416;12.952;2023-07-13T05:40:52;4.90;;;1.83;;
64375;SDS011;50700;55.416;12.952;2023-07-13T05:43:18;5.35;;;2.35;;
64375;SDS011;50700;55.416;12.952;2023-07-13T05:45:44;2.90;;;1.88;;
64375;SDS011;50700;55.416;12.952;2023-07-13T05:48:09;5.65;;;2.05;;
64375;SDS011;50700;55.416;12.952;2023-07-13T05:50:35;4.93;;;2.20;;
64375;SDS011;50700;55.416;12.952;2023-07-13T05:53:00;6.32;;;2.25;;
64375;SDS011;50700;55.416;12.952;2023-07-13T05:55:26;5.03;;;1.65;;
64375;SDS011;50700;55.416;12.952;2023-07-13T05:57:51;4.40;;;2.40;;
64375;SDS011;50700;55.416;12.952;2023-07-13T06:00:16;3.45;;;2.10;;
64375;SDS011;50700;55.416;12.952;2023-07-13T06:02:42;5.10;;;2.03;;
64375;SDS011;50700;55.416;12.952;2023-07-13T06:05:08;3.60;;;1.77;;
64375;SDS011;50700;55.416;12.952;2023-07-13T06:07:33;7.60;;;2.17;;
64375;SDS011;50700;55.416;12.952;2023-07-13T06:09:59;6.72;;;2.00;;
64375;SDS011;50700;55.416;12.952;2023-07-13T06:12:24;3.72;;;1.95;;
64375;SDS011;50700;55.416;12.952;2023-07-13T06:14:50;4.53;;;2.00;;
64375;SDS011;50700;55.416;12.952;2023-07-13T06:17:15;3.13;;;1.60;;
64375;SDS011;50700;55.416;12.952;2023-07-13T06:19:40;4.72;;;1.65;;
64375;SDS011;50700;55.416;12.952;2023-07-13T06:22:06;3.80;;;1.90;;
64375;SDS011;50700;55.416;12.952;2023-07-13T06:24:31;4.07;;;1.80;;
64375;SDS011;50700;55.416;12.952;2023-07-13T06:26:56;5.43;;;1.88;;
64375;SDS011;50700;55.416;12.952;2023-07-13T06:29:21;3.72;;;1.73;;
64375;SDS011;50700;55.416;12.952;2023-07-13T06:31:47;5.28;;;2.40;;
64375;SDS011;50700;55.416;12.952;2023-07-13T06:34:12;4.78;;;2.30;;
64375;SDS011;50700;55.416;12.952;2023-07-13T06:36:37;4.57;;;1.85;;
64375;SDS011;50700;55.416;12.952;2023-07-13T06:39:03;3.53;;;1.80;;
64375;SDS011;50700;55.416;12.952;2023-07-13T06:41:29;3.58;;;1.70;;
64375;SDS011;50700;55.416;12.952;2023-07-13T06:43:55;6.25;;;1.80;;
64375;SDS011;50700;55.416;12.952;2023-07-13T06:46:21;3.25;;;1.65;;
64375;SDS011;50700;55.416;12.952;2023-07-13T06:48:47;6.05;;;2.80;;
64375;SDS011;50700;55.416;12.952;2023-07-13T06:51:12;4.53;;;1.60;;
64375;SDS011;50700;55.416;12.952;2023-07-13T06:53:37;5.93;;;2.00;;
64375;SDS011;50700;55.416;12.952;2023-07-13T06:56:03;3.17;;;1.50;;
64375;SDS011;50700;55.416;12.952;2023-07-13T06:58:28;4.15;;;1.85;;
64375;SDS011;50700;55.416;12.952;2023-07-13T07:00:53;6.03;;;2.00;;
64375;SDS011;50700;55.416;12.952;2023-07-13T07:03:19;4.38;;;1.70;;
64375;SDS011;50700;55.416;12.952;2023-07-13T07:05:44;3.97;;;1.60;;
64375;SDS011;50700;55.416;12.952;2023-07-13T07:08:10;3.95;;;1.98;;
64375;SDS011;50700;55.416;12.952;2023-07-13T07:10:35;4.85;;;2.03;;
64375;SDS011;50700;55.416;12.952;2023-07-13T07:13:01;4.82;;;2.33;;
64375;SDS011;50700;55.416;12.952;2023-07-13T07:15:26;6.68;;;2.10;;
64375;SDS011;50700;55.416;12.952;2023-07-13T07:17:52;4.95;;;2.25;;
64375;SDS011;50700;55.416;12.952;2023-07-13T07:20:17;6.55;;;1.95;;
64375;SDS011;50700;55.416;12.952;2023-07-13T07:22:43;3.70;;;2.03;;
64375;SDS011;50700;55.416;12.952;2023-07-13T07:25:08;4.82;;;2.13;;
64375;SDS011;50700;55.416;12.952;2023-07-13T07:27:34;5.63;;;2.88;;
64375;SDS011;50700;55.416;12.952;2023-07-13T07:29:59;5.60;;;1.88;;
64375;SDS011;50700;55.416;12.952;2023-07-13T07:32:25;4.10;;;1.58;;
64375;SDS011;50700;55.416;12.952;2023-07-13T07:34:50;5.90;;;1.75;;
64375;SDS011;50700;55.416;12.952;2023-07-13T07:37:15;4.68;;;1.63;;
64375;SDS011;50700;55.416;12.952;2023-07-13T07:39:42;4.20;;;1.83;;
64375;SDS011;50700;55.416;12.952;2023-07-13T07:42:07;4.55;;;2.05;;
64375;SDS011;50700;55.416;12.952;2023-07-13T07:44:33;1.83;;;1.60;;
64375;SDS011;50700;55.416;12.952;2023-07-13T07:46:59;4.32;;;1.77;;
64375;SDS011;50700;55.416;12.952;2023-07-13T07:49:24;4.20;;;1.60;;
64375;SDS011;50700;55.416;12.952;2023-07-13T07:51:49;5.18;;;2.25;;
64375;SDS011;50700;55.416;12.952;2023-07-13T07:54:15;5.05;;;2.00;;
64375;SDS011;50700;55.416;12.952;2023-07-13T07:56:41;3.38;;;1.63;;
64375;SDS011;50700;55.416;12.952;2023-07-13T07:59:06;2.95;;;1.85;;
64375;SDS011;50700;55.416;12.952;2023-07-13T08:01:31;2.88;;;2.05;;
64375;SDS011;50700;55.416;12.952;2023-07-13T08:03:57;2.47;;;1.70;;
64375;SDS011;50700;55.416;12.952;2023-07-13T08:06:22;2.00;;;1.73;;
64375;SDS011;50700;55.416;12.952;2023-07-13T08:08:48;3.17;;;1.77;;
64375;SDS011;50700;55.416;12.952;2023-07-13T08:11:13;3.70;;;1.98;;
64375;SDS011;50700;55.416;12.952;2023-07-13T08:13:38;5.22;;;2.08;;
64375;SDS011;50700;55.416;12.952;2023-07-13T08:16:04;2.55;;;1.98;;
64375;SDS011;50700;55.416;12.952;2023-07-13T08:18:29;9.15;;;2.10;;
64375;SDS011;50700;55.416;12.952;2023-07-13T08:20:55;2.85;;;2.10;;
64375;SDS011;50700;55.416;12.952;2023-07-13T08:23:22;2.60;;;1.80;;
64375;SDS011;50700;55.416;12.952;2023-07-13T08:25:51;3.03;;;1.75;;
64375;SDS011;50700;55.416;12.952;2023-07-13T08:28:17;2.08;;;1.63;;
64375;SDS011;50700;55.416;12.952;2023-07-13T08:30:43;3.30;;;1.52;;
64375;SDS011;50700;55.416;12.952;2023-07-13T08:33:08;3.80;;;1.77;;
64375;SDS011;50700;55.416;12.952;2023-07-13T08:35:33;4.30;;;1.85;;
64375;SDS011;50700;55.416;12.952;2023-07-13T08:37:59;3.42;;;1.70;;
64375;SDS011;50700;55.416;12.952;2023-07-13T08:40:25;7.72;;;2.00;;
64375;SDS011;50700;55.416;12.952;2023-07-13T08:42:55;2.90;;;1.85;;
64375;SDS011;50700;55.416;12.952;2023-07-13T08:45:23;3.13;;;1.70;;
64375;SDS011;50700;55.416;12.952;2023-07-13T08:47:54;2.65;;;1.83;;
64375;SDS011;50700;55.416;12.952;2023-07-13T08:50:21;4.43;;;1.90;;
64375;SDS011;50700;55.416;12.952;2023-07-13T08:52:49;1.85;;;1.50;;
64375;SDS011;50700;55.416;12.952;2023-07-13T08:55:16;7.03;;;2.08;;
64375;SDS011;50700;55.416;12.952;2023-07-13T08:57:43;2.92;;;1.63;;
64375;SDS011;50700;55.416;12.952;2023-07-13T09:00:11;2.92;;;1.73;;
64375;SDS011;50700;55.416;12.952;2023-07-13T09:02:42;4.38;;;2.03;;
64375;SDS011;50700;55.416;12.952;2023-07-13T09:05:13;3.13;;;2.00;;
64375;SDS011;50700;55.416;12.952;2023-07-13T09:07:41;6.28;;;2.00;;
64375;SDS011;50700;55.416;12.952;2023-07-13T09:10:11;4.82;;;1.50;;
64375;SDS011;50700;55.416;12.952;2023-07-13T09:18:03;3.88;;;1.65;;
64375;SDS011;50700;55.416;12.952;2023-07-13T09:20:32;6.50;;;1.90;;
64375;SDS011;50700;55.416;12.952;2023-07-13T09:22:59;3.47;;;1.55;;
64375;SDS011;50700;55.416;12.952;2023-07-13T09:25:36;5.47;;;1.58;;
64375;SDS011;50700;55.416;12.952;2023-07-13T09:28:08;2.35;;;1.65;;
64375;SDS011;50700;55.416;12.952;2023-07-13T09:30:41;7.13;;;2.00;;
64375;SDS011;50700;55.416;12.952;2023-07-13T09:33:08;4.10;;;1.80;;
64375;SDS011;50700;55.416;12.952;2023-07-13T09:35:34;4.55;;;1.92;;
64375;SDS011;50700;55.416;12.952;2023-07-13T09:38:11;7.40;;;1.95;;
64375;SDS011;50700;55.416;12.952;2023-07-13T09:40:50;3.53;;;1.70;;
64375;SDS011;50700;55.416;12.952;2023-07-13T09:43:19;6.25;;;2.28;;
64375;SDS011;50700;55.416;12.952;2023-07-13T09:45:46;5.13;;;1.98;;
64375;SDS011;50700;55.416;12.952;2023-07-13T09:48:13;3.65;;;1.90;;
64375;SDS011;50700;55.416;12.952;2023-07-13T09:50:39;4.35;;;2.03;;
64375;SDS011;50700;55.416;12.952;2023-07-13T09:53:10;7.00;;;2.33;;
64375;SDS011;50700;55.416;12.952;2023-07-13T09:55:39;6.55;;;2.28;;
64375;SDS011;50700;55.416;12.952;2023-07-13T10:00:34;8.07;;;2.22;;
64375;SDS011;50700;55.416;12.952;2023-07-13T10:03:01;3.33;;;1.90;;
64375;SDS011;50700;55.416;12.952;2023-07-13T10:05:30;4.57;;;2.10;;
64375;SDS011;50700;55.416;12.952;2023-07-13T10:08:02;7.40;;;2.05;;
64375;SDS011;50700;55.416;12.952;2023-07-13T10:10:27;4.47;;;2.13;;
64375;SDS011;50700;55.416;12.952;2023-07-13T10:12:53;6.63;;;2.20;;
64375;SDS011;50700;55.416;12.952;2023-07-13T10:15:19;6.53;;;2.70;;
64375;SDS011;50700;55.416;12.952;2023-07-13T10:17:45;5.20;;;2.47;;
64375;SDS011;50700;55.416;12.952;2023-07-13T10:20:11;8.23;;;2.50;;
64375;SDS011;50700;55.416;12.952;2023-07-13T10:22:54;5.82;;;2.13;;
64375;SDS011;50700;55.416;12.952;2023-07-13T10:25:24;4.68;;;2.20;;
64375;SDS011;50700;55.416;12.952;2023-07-13T10:27:51;4.53;;;2.03;;
64375;SDS011;50700;55.416;12.952;2023-07-13T10:30:27;2.95;;;1.80;;
64375;SDS011;50700;55.416;12.952;2023-07-13T10:32:57;8.60;;;1.75;;
64375;SDS011;50700;55.416;12.952;2023-07-13T10:35:23;3.03;;;1.60;;
64375;SDS011;50700;55.416;12.952;2023-07-13T10:38:02;5.22;;;1.60;;
64375;SDS011;50700;55.416;12.952;2023-07-13T10:41:14;1.98;;;1.30;;
64375;SDS011;50700;55.416;12.952;2023-07-13T10:43:27;2.45;;;1.10;;
64375;SDS011;50700;55.416;12.952;2023-07-13T10:45:53;2.10;;;0.80;;
64375;SDS011;50700;55.416;12.952;2023-07-13T10:48:19;1.70;;;0.90;;
64375;SDS011;50700;55.416;12.952;2023-07-13T10:50:46;1.80;;;0.98;;
64375;SDS011;50700;55.416;12.952;2023-07-13T10:53:20;1.33;;;0.77;;
64375;SDS011;50700;55.416;12.952;2023-07-13T10:58:12;0.70;;;0.70;;
64375;SDS011;50700;55.416;12.952;2023-07-13T11:03:23;0.88;;;0.75;;
64375;SDS011;50700;55.416;12.952;2023-07-13T11:05:49;3.03;;;0.93;;
64375;SDS011;50700;55.416;12.952;2023-07-13T11:10:56;1.63;;;1.30;;
64375;SDS011;50700;55.416;12.952;2023-07-13T11:13:39;1.73;;;1.30;;
64375;SDS011;50700;55.416;12.952;2023-07-13T11:18:50;1.63;;;1.30;;
64375;SDS011;50700;55.416;12.952;2023-07-13T11:21:20;0.80;;;0.80;;
64375;SDS011;50700;55.416;12.952;2023-07-13T11:23:51;1.90;;;0.90;;
64375;SDS011;50700;55.416;12.952;2023-07-13T11:29:07;2.00;;;1.63;;
64375;SDS011;50700;55.416;12.952;2023-07-13T11:31:33;2.00;;;1.48;;
64375;SDS011;50700;55.416;12.952;2023-07-13T11:33:59;1.52;;;1.20;;
64375;SDS011;50700;55.416;12.952;2023-07-13T11:36:29;1.30;;;1.13;;
64375;SDS011;50700;55.416;12.952;2023-07-13T11:41:32;1.17;;;0.90;;
64375;SDS011;50700;55.416;12.952;2023-07-13T11:44:07;0.85;;;0.82;;
64375;SDS011;50700;55.416;12.952;2023-07-13T11:46:33;2.13;;;1.23;;
64375;SDS011;50700;55.416;12.952;2023-07-13T11:48:58;1.77;;;1.05;;
64375;SDS011;50700;55.416;12.952;2023-07-13T11:51:31;0.80;;;0.80;;
64375;SDS011;50700;55.416;12.952;2023-07-13T11:53:57;1.10;;;0.80;;
64375;SDS011;50700;55.416;12.952;2023-07-13T11:56:24;1.23;;;0.90;;
64375;SDS011;50700;55.416;12.952;2023-07-13T11:58:51;2.50;;;0.88;;
64375;SDS011;50700;55.416;12.952;2023-07-13T12:01:21;0.80;;;0.80;;
64375;SDS011;50700;55.416;12.952;2023-07-13T12:03:47;2.50;;;0.88;;
64375;SDS011;50700;55.416;12.952;2023-07-13T12:06:21;1.83;;;0.90;;
64375;SDS011;50700;55.416;12.952;2023-07-13T12:08:48;0.93;;;0.85;;
64375;SDS011;50700;55.416;12.952;2023-07-13T12:11:17;1.67;;;0.98;;
64375;SDS011;50700;55.416;12.952;2023-07-13T12:13:43;1.48;;;0.90;;
64375;SDS011;50700;55.416;12.952;2023-07-13T12:16:14;5.82;;;1.20;;
64375;SDS011;50700;55.416;12.952;2023-07-13T12:18:41;1.40;;;0.88;;
64375;SDS011;50700;55.416;12.952;2023-07-13T12:21:10;1.20;;;1.10;;
64375;SDS011;50700;55.416;12.952;2023-07-13T12:23:38;2.83;;;1.20;;
64375;SDS011;50700;55.416;12.952;2023-07-13T12:26:04;2.90;;;1.38;;
64375;SDS011;50700;55.416;12.952;2023-07-13T12:28:35;3.67;;;1.48;;
64375;SDS011;50700;55.416;12.952;2023-07-13T12:31:02;1.50;;;1.40;;
64375;SDS011;50700;55.416;12.952;2023-07-13T12:33:28;2.55;;;1.40;;
64375;SDS011;50700;55.416;12.952;2023-07-13T12:35:54;3.17;;;1.30;;
64375;SDS011;50700;55.416;12.952;2023-07-13T12:38:21;1.67;;;1.23;;
64375;SDS011;50700;55.416;12.952;2023-07-13T12:40:49;2.88;;;1.30;;
64375;SDS011;50700;55.416;12.952;2023-07-13T12:43:15;2.22;;;1.75;;
64375;SDS011;50700;55.416;12.952;2023-07-13T12:48:25;3.53;;;1.55;;
64375;SDS011;50700;55.416;12.952;2023-07-13T12:50:50;3.45;;;1.63;;
64375;SDS011;50700;55.416;12.952;2023-07-13T12:53:22;3.70;;;1.60;;
64375;SDS011;50700;55.416;12.952;2023-07-13T12:58:25;3.97;;;1.88;;
64375;SDS011;50700;55.416;12.952;2023-07-13T13:00:51;4.78;;;1.70;;
64375;SDS011;50700;55.416;12.952;2023-07-13T13:05:44;3.58;;;1.73;;
64375;SDS011;50700;55.416;12.952;2023-07-13T13:08:11;5.15;;;2.05;;
64375;SDS011;50700;55.416;12.952;2023-07-13T13:10:36;3.45;;;2.08;;
64375;SDS011;50700;55.416;12.952;2023-07-13T13:13:02;3.08;;;2.00;;
64375;SDS011;50700;55.416;12.952;2023-07-13T13:15:28;2.95;;;1.88;;
64375;SDS011;50700;55.416;12.952;2023-07-13T13:17:55;3.70;;;1.65;;
64375;SDS011;50700;55.416;12.952;2023-07-13T13:20:21;5.95;;;1.80;;
64375;SDS011;50700;55.416;12.952;2023-07-13T13:22:47;4.03;;;1.80;;
64375;SDS011;50700;55.416;12.952;2023-07-13T13:25:13;5.68;;;1.75;;
64375;SDS011;50700;55.416;12.952;2023-07-13T13:27:40;2.83;;;1.50;;
64375;SDS011;50700;55.416;12.952;2023-07-13T13:30:13;2.83;;;1.58;;
64375;SDS011;50700;55.416;12.952;2023-07-13T13:32:42;2.72;;;1.40;;
64375;SDS011;50700;55.416;12.952;2023-07-13T13:35:14;3.55;;;1.80;;
64375;SDS011;50700;55.416;12.952;2023-07-13T13:37:39;4.38;;;1.63;;
64375;SDS011;50700;55.416;12.952;2023-07-13T13:40:19;2.63;;;1.50;;
64375;SDS011;50700;55.416;12.952;2023-07-13T13:42:46;4.13;;;1.58;;
64375;SDS011;50700;55.416;12.952;2023-07-13T13:45:12;2.47;;;1.50;;
64375;SDS011;50700;55.416;12.952;2023-07-13T13:47:38;3.92;;;1.40;;
64375;SDS011;50700;55.416;12.952;2023-07-13T13:50:37;2.45;;;1.55;;
64375;SDS011;50700;55.416;12.952;2023-07-13T13:52:56;2.45;;;1.50;;
64375;SDS011;50700;55.416;12.952;2023-07-13T13:55:21;1.80;;;1.10;;
64375;SDS011;50700;55.416;12.952;2023-07-13T13:57:49;2.80;;;1.52;;
64375;SDS011;50700;55.416;12.952;2023-07-13T14:00:15;7.10;;;1.30;;
64375;SDS011;50700;55.416;12.952;2023-07-13T14:02:44;3.30;;;1.52;;
64375;SDS011;50700;55.416;12.952;2023-07-13T14:05:21;6.88;;;1.20;;
64375;SDS011;50700;55.416;12.952;2023-07-13T14:07:46;4.03;;;1.23;;
64375;SDS011;50700;55.416;12.952;2023-07-13T14:10:13;2.47;;;1.10;;
64375;SDS011;50700;55.416;12.952;2023-07-13T14:12:40;2.78;;;1.30;;
64375;SDS011;50700;55.416;12.952;2023-07-13T14:15:06;3.28;;;1.30;;
64375;SDS011;50700;55.416;12.952;2023-07-13T14:17:34;3.20;;;1.23;;
64375;SDS011;50700;55.416;12.952;2023-07-13T14:19:59;2.17;;;1.27;;
64375;SDS011;50700;55.416;12.952;2023-07-13T14:22:25;4.97;;;1.02;;
64375;SDS011;50700;55.416;12.952;2023-07-13T14:24:54;2.55;;;1.23;;
64375;SDS011;50700;55.416;12.952;2023-07-13T14:27:20;2.80;;;1.42;;
64375;SDS011;50700;55.416;12.952;2023-07-13T14:29:45;1.88;;;1.30;;
64375;SDS011;50700;55.416;12.952;2023-07-13T14:32:12;2.75;;;1.58;;
64375;SDS011;50700;55.416;12.952;2023-07-13T14:34:38;3.42;;;1.63;;
64375;SDS011;50700;55.416;12.952;2023-07-13T14:37:04;4.20;;;1.30;;
64375;SDS011;50700;55.416;12.952;2023-07-13T14:39:30;4.90;;;1.52;;
64375;SDS011;50700;55.416;12.952;2023-07-13T14:41:56;1.95;;;1.42;;
64375;SDS011;50700;55.416;12.952;2023-07-13T14:44:25;3.75;;;1.45;;
64375;SDS011;50700;55.416;12.952;2023-07-13T14:46:51;5.53;;;2.30;;
64375;SDS011;50700;55.416;12.952;2023-07-13T14:49:21;2.53;;;1.30;;
64375;SDS011;50700;55.416;12.952;2023-07-13T14:51:48;4.13;;;1.70;;
64375;SDS011;50700;55.416;12.952;2023-07-13T14:54:13;3.63;;;1.63;;
64375;SDS011;50700;55.416;12.952;2023-07-13T14:56:39;2.42;;;1.50;;
64375;SDS011;50700;55.416;12.952;2023-07-13T14:59:05;3.88;;;1.50;;
64375;SDS011;50700;55.416;12.952;2023-07-13T15:01:32;1.92;;;1.30;;
64375;SDS011;50700;55.416;12.952;2023-07-13T15:03:57;1.92;;;1.13;;
64375;SDS011;50700;55.416;12.952;2023-07-13T15:06:23;3.25;;;1.35;;